EJU53RD LFMN-LICJ
Flight info
| Callsign | EJU53RD |
|---|---|
| Flight time | N/A |
| Altitude | 30000 |
| Route | SODRI7A SODRI DCT RAPUR DCT RATAP DCT BTA/N0421F390 DCT DOKAR DCT SUNEV DCT NEMIT DCT TINTO DCT RUVIP DCT RONAB DCT GIANO GIANO3M |
| Aircraft | A32N/M-V/N |
Departure
| Time | N/A |
|---|---|
| Airport | Nice-Côte d'Azur Airport (LFMN) |
Arrival
| Time | 2026-05-03 20:23 |
|---|---|
| Airport | Falcone–Borsellino Airport (LICJ) |
| Time | Latitude | Longitude | Altitude | Speed | Heading |
|---|---|---|---|---|---|
| 2026-05-03 20:15 | 38.46228 | 13.25373 | 4009 ft | 222 kts | 203° |
| 2026-05-03 20:15 | 38.44819 | 13.24569 | 4008 ft | 221 kts | 202° |
| 2026-05-03 20:15 | 38.43460 | 13.23795 | 4011 ft | 206 kts | 202° |
| 2026-05-03 20:15 | 38.42222 | 13.23089 | 4008 ft | 184 kts | 202° |
| 2026-05-03 20:16 | 38.41113 | 13.22458 | 4002 ft | 165 kts | 203° |
| 2026-05-03 20:16 | 38.40122 | 13.21894 | 3998 ft | 147 kts | 203° |
| 2026-05-03 20:16 | 38.39229 | 13.21386 | 4007 ft | 137 kts | 202° |
| 2026-05-03 20:16 | 38.38366 | 13.20896 | 4005 ft | 136 kts | 202° |
| 2026-05-03 20:17 | 38.37501 | 13.20404 | 3993 ft | 137 kts | 202° |
| 2026-05-03 20:17 | 38.36629 | 13.19909 | 3895 ft | 139 kts | 203° |
| 2026-05-03 20:17 | 38.35751 | 13.19410 | 3722 ft | 137 kts | 203° |
| 2026-05-03 20:17 | 38.34882 | 13.18916 | 3552 ft | 137 kts | 203° |
| 2026-05-03 20:18 | 38.34013 | 13.18422 | 3378 ft | 137 kts | 203° |
| 2026-05-03 20:18 | 38.33151 | 13.17933 | 3202 ft | 136 kts | 203° |
| 2026-05-03 20:18 | 38.32292 | 13.17445 | 3022 ft | 135 kts | 203° |
| 2026-05-03 20:18 | 38.31440 | 13.16961 | 2848 ft | 134 kts | 203° |
| 2026-05-03 20:19 | 38.30602 | 13.16485 | 2667 ft | 133 kts | 203° |
| 2026-05-03 20:19 | 38.29756 | 13.16005 | 2489 ft | 133 kts | 203° |
| 2026-05-03 20:19 | 38.28918 | 13.15530 | 2318 ft | 132 kts | 203° |
| 2026-05-03 20:19 | 38.28083 | 13.15056 | 2138 ft | 131 kts | 202° |
| 2026-05-03 20:20 | 38.27253 | 13.14586 | 1966 ft | 130 kts | 202° |
| 2026-05-03 20:20 | 38.26424 | 13.14115 | 1792 ft | 130 kts | 202° |
| 2026-05-03 20:20 | 38.25606 | 13.13652 | 1620 ft | 128 kts | 202° |
| 2026-05-03 20:20 | 38.24784 | 13.13186 | 1443 ft | 131 kts | 202° |
| 2026-05-03 20:21 | 38.23953 | 13.12715 | 1264 ft | 130 kts | 202° |
| 2026-05-03 20:21 | 38.23124 | 13.12245 | 1077 ft | 131 kts | 203° |
| 2026-05-03 20:21 | 38.22299 | 13.11778 | 906 ft | 129 kts | 203° |
| 2026-05-03 20:21 | 38.21492 | 13.11321 | 737 ft | 126 kts | 203° |
| 2026-05-03 20:22 | 38.20696 | 13.10871 | 569 ft | 124 kts | 204° |
| 2026-05-03 20:22 | 38.19906 | 13.10424 | 405 ft | 123 kts | 203° |
| 2026-05-03 20:22 | 38.19131 | 13.09979 | 249 ft | 122 kts | 204° |
| 2026-05-03 20:22 | 38.18354 | 13.09537 | 102 ft | 121 kts | 203° |
| 2026-05-03 20:23 | 38.17649 | 13.09145 | 69 ft | 87 kts | 204° |
| 2026-05-03 20:23 | 38.17185 | 13.08885 | 65 ft | 69 kts | 204° |
| 2026-05-03 20:23 | 38.16792 | 13.08668 | 70 ft | 37 kts | 204° |
| 2026-05-03 20:23 | 38.16652 | 13.08556 | 62 ft | 11 kts | 255° |
| 2026-05-03 20:24 | 38.16680 | 13.08476 | 61 ft | 0 kts | 311° |
| 2026-05-03 20:25 | 38.16692 | 13.08462 | 65 ft | 8 kts | 320° |
| 2026-05-03 20:25 | 38.16770 | 13.08440 | 61 ft | 14 kts | 10° |
| 2026-05-03 20:26 | 38.16880 | 13.08480 | 60 ft | 19 kts | 17° |
| 2026-05-03 20:26 | 38.17014 | 13.08537 | 59 ft | 22 kts | 15° |
| 2026-05-03 20:26 | 38.17168 | 13.08601 | 58 ft | 25 kts | 18° |
| 2026-05-03 20:26 | 38.17338 | 13.08672 | 65 ft | 26 kts | 18° |
| 2026-05-03 20:27 | 38.17515 | 13.08747 | 68 ft | 28 kts | 28° |
| 2026-05-03 20:27 | 38.17684 | 13.08905 | 63 ft | 32 kts | 37° |
| 2026-05-03 20:27 | 38.17797 | 13.09130 | 64 ft | 30 kts | 68° |
| 2026-05-03 20:27 | 38.17880 | 13.09371 | 62 ft | 32 kts | 68° |
| 2026-05-03 20:28 | 38.17969 | 13.09642 | 61 ft | 34 kts | 66° |
| 2026-05-03 20:28 | 38.18042 | 13.09857 | 65 ft | 24 kts | 67° |
| 2026-05-03 20:28 | 38.18110 | 13.10062 | 61 ft | 26 kts | 68° |
| 2026-05-03 20:28 | 38.18182 | 13.10273 | 61 ft | 26 kts | 68° |
| 2026-05-03 20:29 | 38.18270 | 13.10366 | 61 ft | 16 kts | 4° |
| 2026-05-03 20:29 | 38.18333 | 13.10468 | 61 ft | 16 kts | 43° |
| 2026-05-03 20:29 | 38.18436 | 13.10533 | 59 ft | 15 kts | 44° |
| 2026-05-03 20:29 | 38.18478 | 13.10638 | 64 ft | 11 kts | 81° |
| 2026-05-03 20:30 | 38.18435 | 13.10679 | 58 ft | 9 kts | 158° |
| 2026-05-03 20:30 | 38.18409 | 13.10692 | 60 ft | 0 kts | 157° |